Hauptseite
METAR-TAF:

METAR-TAF

Flughäfen :

Zagreb, Kroatien

Flughafen Zagreb

Breite: 45-44N, Länge: 016-04E, Höhe: 106 m

Beobachtung

Neuester Wetterbericht von vor 10 Minuten, um 02:30 UTC
Windstille
Temperatur 15°C
Luftfeuchtigkeit 88%
Luftdruck 1011 hPa
Sichtweite 10 km oder mehr
keine Wolken unter 1500 m und keine Kumulonimbus oder Gewitterwolken

METAR: LDZA 280230Z 00000KT CAVOK 15/13 Q1011 NOSIG

Zeit: 04:40 (02:40 UTC)

Prognose

Neuester Wetterbericht von vor 3 Stunden und 15 Minuten, um 23:25 UTC
Gültige Prognose vom 28 um 00 UTC bis 28 um 24 UTC
Wind 2 kt aus unterschiedlichen Richtungen
Sichtweite 10 km oder mehr
Leicht bewölkt in der Höhe von 3500 ft
Zeitweise
vom 28 um 11 UTC bis 28 um 18 UTC
Wind 6 kt aus Nordost

TAF: LDZA 272325Z 2800/2824 VRB02KT 9999 FEW035 TX29/2814Z TN15/2804Z TEMPO 2811/2818 05006KT

Wetterbeobachtungen und Prognosen von mehr als 4000 Flughäfen (METAR und TAF Bericht).

Die verfügbaren Stationen werden durch gelbe und rote Markierungen auf der Karte dargestellt.

Führen Sie die Maus auf sie, um den Namen der Station zu sehen.

Darauf klicken, um die Beobachtung von Wetterbeobachtungen und Prognosen zu sehen.

Um die Karte zu ändern : klicken Sie auf den grünen Tasten mit einem schwarzen Kreuz Zum Vergrößern, auf den grünen Button mit einem Gedankenstrich zu verkleinern, oder auf die grünen Pfeile für benachbarte Karten.


METAR-TAF: